sensor_id;sensor_type;location;lat;lon;timestamp;temperature;humidity
18085;DHT22;9169;44.492;11.372;2022-09-09T00:01:44;29.00;40.60
18085;DHT22;9169;44.492;11.372;2022-09-09T00:04:14;29.00;40.60
18085;DHT22;9169;44.492;11.372;2022-09-09T00:06:43;29.00;41.00
18085;DHT22;9169;44.492;11.372;2022-09-09T00:09:12;29.00;40.80
18085;DHT22;9169;44.492;11.372;2022-09-09T00:11:40;28.90;40.70
18085;DHT22;9169;44.492;11.372;2022-09-09T00:14:10;28.90;40.70
18085;DHT22;9169;44.492;11.372;2022-09-09T00:16:40;28.90;40.90
18085;DHT22;9169;44.492;11.372;2022-09-09T00:19:12;28.90;40.90
18085;DHT22;9169;44.492;11.372;2022-09-09T00:21:43;28.80;40.80
18085;DHT22;9169;44.492;11.372;2022-09-09T00:24:16;28.90;40.80
18085;DHT22;9169;44.492;11.372;2022-09-09T00:26:45;28.90;40.70
18085;DHT22;9169;44.492;11.372;2022-09-09T00:29:18;28.90;40.50
18085;DHT22;9169;44.492;11.372;2022-09-09T00:31:48;28.90;40.60
18085;DHT22;9169;44.492;11.372;2022-09-09T00:34:18;28.90;40.60
18085;DHT22;9169;44.492;11.372;2022-09-09T00:36:47;28.90;40.70
18085;DHT22;9169;44.492;11.372;2022-09-09T00:39:25;28.80;40.50
18085;DHT22;9169;44.492;11.372;2022-09-09T00:41:57;28.80;40.40
18085;DHT22;9169;44.492;11.372;2022-09-09T00:44:31;28.80;40.50
18085;DHT22;9169;44.492;11.372;2022-09-09T00:47:12;28.80;40.40
18085;DHT22;9169;44.492;11.372;2022-09-09T00:49:46;28.80;40.40
18085;DHT22;9169;44.492;11.372;2022-09-09T00:52:20;28.80;40.40
18085;DHT22;9169;44.492;11.372;2022-09-09T00:54:51;28.80;40.50
18085;DHT22;9169;44.492;11.372;2022-09-09T00:57:25;28.70;40.50
18085;DHT22;9169;44.492;11.372;2022-09-09T00:59:58;28.70;40.70
18085;DHT22;9169;44.492;11.372;2022-09-09T01:02:26;28.70;40.60
18085;DHT22;9169;44.492;11.372;2022-09-09T01:04:55;28.60;40.90
18085;DHT22;9169;44.492;11.372;2022-09-09T01:07:25;28.60;40.80
18085;DHT22;9169;44.492;11.372;2022-09-09T01:09:52;28.50;41.00
18085;DHT22;9169;44.492;11.372;2022-09-09T01:12:24;28.50;41.10
18085;DHT22;9169;44.492;11.372;2022-09-09T01:14:54;28.40;41.40
18085;DHT22;9169;44.492;11.372;2022-09-09T01:17:25;28.40;41.50
18085;DHT22;9169;44.492;11.372;2022-09-09T01:19:59;28.30;41.10
18085;DHT22;9169;44.492;11.372;2022-09-09T01:22:29;28.30;41.70
18085;DHT22;9169;44.492;11.372;2022-09-09T01:25:10;28.30;42.00
18085;DHT22;9169;44.492;11.372;2022-09-09T01:27:40;28.20;41.80
18085;DHT22;9169;44.492;11.372;2022-09-09T01:30:09;28.10;41.50
18085;DHT22;9169;44.492;11.372;2022-09-09T01:32:37;28.10;42.10
18085;DHT22;9169;44.492;11.372;2022-09-09T01:35:05;28.00;42.60
18085;DHT22;9169;44.492;11.372;2022-09-09T01:37:34;27.90;42.50
18085;DHT22;9169;44.492;11.372;2022-09-09T01:40:00;27.80;42.60
18085;DHT22;9169;44.492;11.372;2022-09-09T01:42:27;27.80;42.40
18085;DHT22;9169;44.492;11.372;2022-09-09T01:44:55;27.70;42.40
18085;DHT22;9169;44.492;11.372;2022-09-09T01:47:22;27.70;43.30
18085;DHT22;9169;44.492;11.372;2022-09-09T01:49:49;27.70;42.50
18085;DHT22;9169;44.492;11.372;2022-09-09T01:52:16;27.60;42.60
18085;DHT22;9169;44.492;11.372;2022-09-09T01:54:42;27.50;43.30
18085;DHT22;9169;44.492;11.372;2022-09-09T01:57:11;27.50;42.80
18085;DHT22;9169;44.492;11.372;2022-09-09T01:59:59;27.40;43.50
18085;DHT22;9169;44.492;11.372;2022-09-09T02:02:29;27.40;43.40
18085;DHT22;9169;44.492;11.372;2022-09-09T02:04:59;27.20;43.80
18085;DHT22;9169;44.492;11.372;2022-09-09T02:07:31;27.10;44.00
18085;DHT22;9169;44.492;11.372;2022-09-09T02:10:02;27.10;44.00
18085;DHT22;9169;44.492;11.372;2022-09-09T02:12:31;27.00;43.30
18085;DHT22;9169;44.492;11.372;2022-09-09T02:15:00;27.00;43.30
18085;DHT22;9169;44.492;11.372;2022-09-09T02:17:30;26.90;43.80
18085;DHT22;9169;44.492;11.372;2022-09-09T02:19:59;26.90;43.30
18085;DHT22;9169;44.492;11.372;2022-09-09T02:22:28;26.90;43.00
18085;DHT22;9169;44.492;11.372;2022-09-09T02:24:59;26.90;42.90
18085;DHT22;9169;44.492;11.372;2022-09-09T02:27:26;26.90;43.40
18085;DHT22;9169;44.492;11.372;2022-09-09T02:29:54;26.90;43.10
18085;DHT22;9169;44.492;11.372;2022-09-09T02:32:24;26.90;43.50
18085;DHT22;9169;44.492;11.372;2022-09-09T02:34:53;26.90;43.90
18085;DHT22;9169;44.492;11.372;2022-09-09T02:37:22;26.80;44.20
18085;DHT22;9169;44.492;11.372;2022-09-09T02:39:50;26.80;44.40
18085;DHT22;9169;44.492;11.372;2022-09-09T02:42:17;26.80;44.80
18085;DHT22;9169;44.492;11.372;2022-09-09T02:44:44;26.70;45.10
18085;DHT22;9169;44.492;11.372;2022-09-09T02:47:16;26.70;44.40
18085;DHT22;9169;44.492;11.372;2022-09-09T02:49:50;26.70;44.60
18085;DHT22;9169;44.492;11.372;2022-09-09T02:52:19;26.70;44.40
18085;DHT22;9169;44.492;11.372;2022-09-09T02:54:48;26.60;44.60
18085;DHT22;9169;44.492;11.372;2022-09-09T02:57:17;26.60;45.00
18085;DHT22;9169;44.492;11.372;2022-09-09T02:59:45;26.60;44.60
18085;DHT22;9169;44.492;11.372;2022-09-09T03:02:13;26.60;43.90
18085;DHT22;9169;44.492;11.372;2022-09-09T03:04:40;26.60;43.60
18085;DHT22;9169;44.492;11.372;2022-09-09T03:07:08;26.70;44.20
18085;DHT22;9169;44.492;11.372;2022-09-09T03:09:35;26.60;44.00
18085;DHT22;9169;44.492;11.372;2022-09-09T03:12:02;26.60;44.40
18085;DHT22;9169;44.492;11.372;2022-09-09T03:14:29;26.60;44.90
18085;DHT22;9169;44.492;11.372;2022-09-09T03:16:56;26.60;44.40
18085;DHT22;9169;44.492;11.372;2022-09-09T03:19:26;26.50;44.40
18085;DHT22;9169;44.492;11.372;2022-09-09T03:21:53;26.50;45.00
18085;DHT22;9169;44.492;11.372;2022-09-09T03:24:21;26.50;45.40
18085;DHT22;9169;44.492;11.372;2022-09-09T03:26:48;26.40;45.20
18085;DHT22;9169;44.492;11.372;2022-09-09T03:29:16;26.40;44.80
18085;DHT22;9169;44.492;11.372;2022-09-09T03:31:43;26.40;44.70
18085;DHT22;9169;44.492;11.372;2022-09-09T03:34:10;26.40;45.20
18085;DHT22;9169;44.492;11.372;2022-09-09T03:36:37;26.40;45.10
18085;DHT22;9169;44.492;11.372;2022-09-09T03:39:03;26.40;45.00
18085;DHT22;9169;44.492;11.372;2022-09-09T03:41:31;26.40;45.00
18085;DHT22;9169;44.492;11.372;2022-09-09T03:43:59;26.40;44.50
18085;DHT22;9169;44.492;11.372;2022-09-09T03:46:26;26.40;44.20
18085;DHT22;9169;44.492;11.372;2022-09-09T03:48:53;26.40;44.60
18085;DHT22;9169;44.492;11.372;2022-09-09T03:51:20;26.40;44.10
18085;DHT22;9169;44.492;11.372;2022-09-09T03:53:47;26.40;45.00
18085;DHT22;9169;44.492;11.372;2022-09-09T03:56:14;26.40;44.60
18085;DHT22;9169;44.492;11.372;2022-09-09T03:58:42;26.40;44.70
18085;DHT22;9169;44.492;11.372;2022-09-09T04:01:09;26.40;44.50
18085;DHT22;9169;44.492;11.372;2022-09-09T04:03:39;26.40;44.30
18085;DHT22;9169;44.492;11.372;2022-09-09T04:06:07;26.40;44.90
18085;DHT22;9169;44.492;11.372;2022-09-09T04:08:38;26.40;45.30
18085;DHT22;9169;44.492;11.372;2022-09-09T04:11:05;26.40;45.00
18085;DHT22;9169;44.492;11.372;2022-09-09T04:13:32;26.40;44.60
18085;DHT22;9169;44.492;11.372;2022-09-09T04:16:01;26.40;44.30
18085;DHT22;9169;44.492;11.372;2022-09-09T04:18:28;26.40;44.20
18085;DHT22;9169;44.492;11.372;2022-09-09T04:20:56;26.40;43.90
18085;DHT22;9169;44.492;11.372;2022-09-09T04:23:23;26.40;43.70
18085;DHT22;9169;44.492;11.372;2022-09-09T04:25:51;26.40;43.60
18085;DHT22;9169;44.492;11.372;2022-09-09T04:28:18;26.40;44.00
18085;DHT22;9169;44.492;11.372;2022-09-09T04:30:45;26.40;43.70
18085;DHT22;9169;44.492;11.372;2022-09-09T04:33:14;26.40;44.30
18085;DHT22;9169;44.492;11.372;2022-09-09T04:35:43;26.40;44.10
18085;DHT22;9169;44.492;11.372;2022-09-09T04:38:10;26.40;43.80
18085;DHT22;9169;44.492;11.372;2022-09-09T04:40:37;26.40;44.00
18085;DHT22;9169;44.492;11.372;2022-09-09T04:43:08;26.40;44.60
18085;DHT22;9169;44.492;11.372;2022-09-09T04:45:35;26.40;44.60
18085;DHT22;9169;44.492;11.372;2022-09-09T04:48:02;26.30;44.60
18085;DHT22;9169;44.492;11.372;2022-09-09T04:50:30;26.30;44.70
18085;DHT22;9169;44.492;11.372;2022-09-09T04:52:59;26.30;44.60
18085;DHT22;9169;44.492;11.372;2022-09-09T04:55:26;26.30;44.50
18085;DHT22;9169;44.492;11.372;2022-09-09T04:57:52;26.20;44.10
18085;DHT22;9169;44.492;11.372;2022-09-09T05:00:20;26.30;44.60
18085;DHT22;9169;44.492;11.372;2022-09-09T05:02:46;26.20;44.70
18085;DHT22;9169;44.492;11.372;2022-09-09T05:05:13;26.20;44.20
18085;DHT22;9169;44.492;11.372;2022-09-09T05:07:41;26.20;44.30
18085;DHT22;9169;44.492;11.372;2022-09-09T05:10:08;26.20;44.30
18085;DHT22;9169;44.492;11.372;2022-09-09T05:12:35;26.20;44.40
18085;DHT22;9169;44.492;11.372;2022-09-09T05:15:02;26.20;44.10
18085;DHT22;9169;44.492;11.372;2022-09-09T05:17:29;26.20;43.80
18085;DHT22;9169;44.492;11.372;2022-09-09T05:19:56;26.30;43.70
18085;DHT22;9169;44.492;11.372;2022-09-09T05:22:22;26.30;43.80
18085;DHT22;9169;44.492;11.372;2022-09-09T05:24:51;26.30;44.50
18085;DHT22;9169;44.492;11.372;2022-09-09T05:27:17;26.20;44.50
18085;DHT22;9169;44.492;11.372;2022-09-09T05:29:44;26.20;44.80
18085;DHT22;9169;44.492;11.372;2022-09-09T05:32:11;26.20;45.30
18085;DHT22;9169;44.492;11.372;2022-09-09T05:34:39;26.10;45.10
18085;DHT22;9169;44.492;11.372;2022-09-09T05:37:05;26.10;45.00
18085;DHT22;9169;44.492;11.372;2022-09-09T05:39:33;26.10;45.10
18085;DHT22;9169;44.492;11.372;2022-09-09T05:42:03;26.10;44.70
18085;DHT22;9169;44.492;11.372;2022-09-09T05:44:30;26.10;45.00
18085;DHT22;9169;44.492;11.372;2022-09-09T05:46:58;26.20;44.50
18085;DHT22;9169;44.492;11.372;2022-09-09T05:49:25;26.20;44.80
18085;DHT22;9169;44.492;11.372;2022-09-09T05:51:52;26.20;44.40
18085;DHT22;9169;44.492;11.372;2022-09-09T05:54:19;26.20;44.90
18085;DHT22;9169;44.492;11.372;2022-09-09T05:56:45;26.20;45.30
18085;DHT22;9169;44.492;11.372;2022-09-09T05:59:13;26.10;44.80
18085;DHT22;9169;44.492;11.372;2022-09-09T06:01:40;26.10;44.70
18085;DHT22;9169;44.492;11.372;2022-09-09T06:04:07;26.20;44.50
18085;DHT22;9169;44.492;11.372;2022-09-09T06:06:34;26.30;44.20
18085;DHT22;9169;44.492;11.372;2022-09-09T06:09:02;26.30;44.40
18085;DHT22;9169;44.492;11.372;2022-09-09T06:11:32;26.40;44.70
18085;DHT22;9169;44.492;11.372;2022-09-09T06:13:59;26.40;44.90
18085;DHT22;9169;44.492;11.372;2022-09-09T06:16:28;26.40;45.40
18085;DHT22;9169;44.492;11.372;2022-09-09T06:18:58;26.40;44.70
18085;DHT22;9169;44.492;11.372;2022-09-09T06:21:25;26.40;44.40
18085;DHT22;9169;44.492;11.372;2022-09-09T06:23:52;26.50;44.60
18085;DHT22;9169;44.492;11.372;2022-09-09T06:26:20;26.50;44.70
18085;DHT22;9169;44.492;11.372;2022-09-09T06:28:48;26.60;44.70
18085;DHT22;9169;44.492;11.372;2022-09-09T06:31:16;26.60;44.70
18085;DHT22;9169;44.492;11.372;2022-09-09T06:33:44;26.70;44.60
18085;DHT22;9169;44.492;11.372;2022-09-09T06:36:11;26.70;45.00
18085;DHT22;9169;44.492;11.372;2022-09-09T06:38:39;26.80;45.10
18085;DHT22;9169;44.492;11.372;2022-09-09T06:41:05;26.80;44.80
18085;DHT22;9169;44.492;11.372;2022-09-09T06:43:33;26.80;44.90
18085;DHT22;9169;44.492;11.372;2022-09-09T06:46:01;26.90;44.80
18085;DHT22;9169;44.492;11.372;2022-09-09T06:48:28;26.90;45.00
18085;DHT22;9169;44.492;11.372;2022-09-09T06:51:03;26.90;45.10
18085;DHT22;9169;44.492;11.372;2022-09-09T06:53:30;27.00;45.00
18085;DHT22;9169;44.492;11.372;2022-09-09T06:55:58;27.00;44.90
18085;DHT22;9169;44.492;11.372;2022-09-09T06:58:26;27.10;44.90
18085;DHT22;9169;44.492;11.372;2022-09-09T07:00:53;27.10;44.70
18085;DHT22;9169;44.492;11.372;2022-09-09T07:03:28;27.20;44.50
18085;DHT22;9169;44.492;11.372;2022-09-09T07:05:55;27.30;44.60
18085;DHT22;9169;44.492;11.372;2022-09-09T07:08:24;27.30;44.70
18085;DHT22;9169;44.492;11.372;2022-09-09T07:10:52;27.30;44.50
18085;DHT22;9169;44.492;11.372;2022-09-09T07:13:19;27.40;44.60
18085;DHT22;9169;44.492;11.372;2022-09-09T07:15:49;27.50;44.40
18085;DHT22;9169;44.492;11.372;2022-09-09T07:18:16;27.50;44.50
18085;DHT22;9169;44.492;11.372;2022-09-09T07:20:42;27.60;44.40
18085;DHT22;9169;44.492;11.372;2022-09-09T07:23:09;27.60;44.40
18085;DHT22;9169;44.492;11.372;2022-09-09T07:25:38;27.60;44.30
18085;DHT22;9169;44.492;11.372;2022-09-09T07:28:10;27.70;44.40
18085;DHT22;9169;44.492;11.372;2022-09-09T07:30:37;27.80;44.30
18085;DHT22;9169;44.492;11.372;2022-09-09T07:33:04;27.80;44.10
18085;DHT22;9169;44.492;11.372;2022-09-09T07:35:31;27.90;44.00
18085;DHT22;9169;44.492;11.372;2022-09-09T07:37:57;27.90;44.40
18085;DHT22;9169;44.492;11.372;2022-09-09T07:40:24;28.00;43.90
18085;DHT22;9169;44.492;11.372;2022-09-09T07:42:52;28.10;43.90
18085;DHT22;9169;44.492;11.372;2022-09-09T07:45:19;28.10;43.90
18085;DHT22;9169;44.492;11.372;2022-09-09T07:47:46;28.10;43.60
18085;DHT22;9169;44.492;11.372;2022-09-09T07:50:13;28.20;43.60
18085;DHT22;9169;44.492;11.372;2022-09-09T07:52:40;28.30;43.60
18085;DHT22;9169;44.492;11.372;2022-09-09T07:55:09;28.40;43.30
18085;DHT22;9169;44.492;11.372;2022-09-09T07:57:36;28.50;43.30
18085;DHT22;9169;44.492;11.372;2022-09-09T08:00:05;28.50;43.10
18085;DHT22;9169;44.492;11.372;2022-09-09T08:02:32;28.60;43.10
18085;DHT22;9169;44.492;11.372;2022-09-09T08:04:59;28.70;43.00
18085;DHT22;9169;44.492;11.372;2022-09-09T08:07:25;28.80;42.90
18085;DHT22;9169;44.492;11.372;2022-09-09T08:09:52;28.80;42.80
18085;DHT22;9169;44.492;11.372;2022-09-09T08:12:19;28.90;42.70
18085;DHT22;9169;44.492;11.372;2022-09-09T08:14:46;28.90;42.40
18085;DHT22;9169;44.492;11.372;2022-09-09T08:17:15;28.90;42.30
18085;DHT22;9169;44.492;11.372;2022-09-09T08:19:41;29.00;42.20
18085;DHT22;9169;44.492;11.372;2022-09-09T08:22:09;29.10;42.20
18085;DHT22;9169;44.492;11.372;2022-09-09T08:24:36;29.10;42.00
18085;DHT22;9169;44.492;11.372;2022-09-09T08:27:03;29.20;41.90
18085;DHT22;9169;44.492;11.372;2022-09-09T08:29:30;29.30;41.90
18085;DHT22;9169;44.492;11.372;2022-09-09T08:31:57;29.40;41.70
18085;DHT22;9169;44.492;11.372;2022-09-09T08:34:28;29.40;41.60
18085;DHT22;9169;44.492;11.372;2022-09-09T08:36:56;29.40;41.30
18085;DHT22;9169;44.492;11.372;2022-09-09T08:39:23;29.40;41.20
18085;DHT22;9169;44.492;11.372;2022-09-09T08:44:53;29.60;41.20
18085;DHT22;9169;44.492;11.372;2022-09-09T08:47:23;29.60;40.70
18085;DHT22;9169;44.492;11.372;2022-09-09T08:50:00;29.80;40.90
18085;DHT22;9169;44.492;11.372;2022-09-09T08:52:32;29.70;40.90
18085;DHT22;9169;44.492;11.372;2022-09-09T08:55:10;29.80;40.80
18085;DHT22;9169;44.492;11.372;2022-09-09T08:57:39;29.80;40.50
18085;DHT22;9169;44.492;11.372;2022-09-09T09:00:08;29.90;40.20
18085;DHT22;9169;44.492;11.372;2022-09-09T09:02:37;29.90;40.20
18085;DHT22;9169;44.492;11.372;2022-09-09T09:05:12;30.00;40.20
18085;DHT22;9169;44.492;11.372;2022-09-09T09:07:46;30.10;40.10
18085;DHT22;9169;44.492;11.372;2022-09-09T09:10:17;30.30;40.00
18085;DHT22;9169;44.492;11.372;2022-09-09T09:12:47;30.50;39.90
18085;DHT22;9169;44.492;11.372;2022-09-09T09:15:20;30.70;39.70
18085;DHT22;9169;44.492;11.372;2022-09-09T09:17:48;30.90;39.90
18085;DHT22;9169;44.492;11.372;2022-09-09T09:20:18;31.10;40.10
18085;DHT22;9169;44.492;11.372;2022-09-09T09:22:47;31.30;40.10
18085;DHT22;9169;44.492;11.372;2022-09-09T09:25:17;31.40;40.00
18085;DHT22;9169;44.492;11.372;2022-09-09T09:27:50;31.40;39.80
18085;DHT22;9169;44.492;11.372;2022-09-09T09:30:20;31.60;39.90
18085;DHT22;9169;44.492;11.372;2022-09-09T09:32:50;31.90;40.10
18085;DHT22;9169;44.492;11.372;2022-09-09T09:35:19;32.60;40.00
18085;DHT22;9169;44.492;11.372;2022-09-09T09:37:46;33.90;39.70
18085;DHT22;9169;44.492;11.372;2022-09-09T09:40:15;35.60;38.70
18085;DHT22;9169;44.492;11.372;2022-09-09T09:42:48;36.90;37.30
18085;DHT22;9169;44.492;11.372;2022-09-09T09:45:16;38.30;36.20
18085;DHT22;9169;44.492;11.372;2022-09-09T09:47:45;39.40;34.90
18085;DHT22;9169;44.492;11.372;2022-09-09T09:50:15;40.50;34.20
18085;DHT22;9169;44.492;11.372;2022-09-09T09:52:52;41.40;33.20
18085;DHT22;9169;44.492;11.372;2022-09-09T09:55:19;42.30;32.80
18085;DHT22;9169;44.492;11.372;2022-09-09T09:57:46;42.70;32.40
18085;DHT22;9169;44.492;11.372;2022-09-09T10:00:14;42.70;31.50
18085;DHT22;9169;44.492;11.372;2022-09-09T10:02:42;42.00;31.60
18085;DHT22;9169;44.492;11.372;2022-09-09T10:05:12;40.90;32.00
18085;DHT22;9169;44.492;11.372;2022-09-09T10:07:39;39.90;32.90
18085;DHT22;9169;44.492;11.372;2022-09-09T10:10:09;38.90;33.70
18085;DHT22;9169;44.492;11.372;2022-09-09T10:12:41;38.20;34.40
18085;DHT22;9169;44.492;11.372;2022-09-09T10:15:21;38.10;35.30
18085;DHT22;9169;44.492;11.372;2022-09-09T10:17:52;39.10;36.10
18085;DHT22;9169;44.492;11.372;2022-09-09T10:20:23;40.40;34.70
18085;DHT22;9169;44.492;11.372;2022-09-09T10:22:52;41.60;33.40
18085;DHT22;9169;44.492;11.372;2022-09-09T10:25:31;41.60;32.30
18085;DHT22;9169;44.492;11.372;2022-09-09T10:28:13;41.60;31.90
18085;DHT22;9169;44.492;11.372;2022-09-09T10:30:46;41.90;32.30
18085;DHT22;9169;44.492;11.372;2022-09-09T10:33:16;42.30;32.40
18085;DHT22;9169;44.492;11.372;2022-09-09T10:35:50;42.70;32.00
18085;DHT22;9169;44.492;11.372;2022-09-09T10:38:21;42.70;31.40
18085;DHT22;9169;44.492;11.372;2022-09-09T10:41:06;42.10;31.50
18085;DHT22;9169;44.492;11.372;2022-09-09T10:43:42;41.90;32.10
18085;DHT22;9169;44.492;11.372;2022-09-09T10:46:16;42.10;32.50
18085;DHT22;9169;44.492;11.372;2022-09-09T10:48:48;42.30;32.00
18085;DHT22;9169;44.492;11.372;2022-09-09T10:51:22;41.90;32.20
18085;DHT22;9169;44.492;11.372;2022-09-09T10:53:53;41.60;32.20
18085;DHT22;9169;44.492;11.372;2022-09-09T10:56:25;42.00;32.50
18085;DHT22;9169;44.492;11.372;2022-09-09T10:58:53;42.20;31.60
18085;DHT22;9169;44.492;11.372;2022-09-09T11:01:25;41.90;31.90
18085;DHT22;9169;44.492;11.372;2022-09-09T11:03:56;41.60;31.50
18085;DHT22;9169;44.492;11.372;2022-09-09T11:06:25;41.20;32.00
18085;DHT22;9169;44.492;11.372;2022-09-09T11:08:54;41.20;32.50
18085;DHT22;9169;44.492;11.372;2022-09-09T11:11:25;42.30;33.00
18085;DHT22;9169;44.492;11.372;2022-09-09T11:13:55;43.70;31.80
18085;DHT22;9169;44.492;11.372;2022-09-09T11:16:25;44.70;30.50
18085;DHT22;9169;44.492;11.372;2022-09-09T11:18:55;45.20;30.60
18085;DHT22;9169;44.492;11.372;2022-09-09T11:21:23;44.70;29.10
18085;DHT22;9169;44.492;11.372;2022-09-09T11:23:53;43.50;29.80
18085;DHT22;9169;44.492;11.372;2022-09-09T11:26:24;42.20;29.70
18085;DHT22;9169;44.492;11.372;2022-09-09T11:28:59;41.10;30.60
18085;DHT22;9169;44.492;11.372;2022-09-09T11:31:33;40.20;31.40
18085;DHT22;9169;44.492;11.372;2022-09-09T11:34:10;40.00;32.20
18085;DHT22;9169;44.492;11.372;2022-09-09T11:36:49;40.10;32.10
18085;DHT22;9169;44.492;11.372;2022-09-09T11:39:30;40.60;32.40
18085;DHT22;9169;44.492;11.372;2022-09-09T11:42:05;41.70;32.10
18085;DHT22;9169;44.492;11.372;2022-09-09T11:44:33;42.20;31.40
18085;DHT22;9169;44.492;11.372;2022-09-09T11:47:00;42.70;30.20
18085;DHT22;9169;44.492;11.372;2022-09-09T11:49:27;42.50;30.30
18085;DHT22;9169;44.492;11.372;2022-09-09T11:51:55;42.50;30.00
18085;DHT22;9169;44.492;11.372;2022-09-09T11:54:27;43.10;30.40
18085;DHT22;9169;44.492;11.372;2022-09-09T11:56:54;44.20;30.00
18085;DHT22;9169;44.492;11.372;2022-09-09T11:59:22;45.30;29.40
18085;DHT22;9169;44.492;11.372;2022-09-09T12:01:53;46.00;28.90
18085;DHT22;9169;44.492;11.372;2022-09-09T12:04:32;46.50;29.20
18085;DHT22;9169;44.492;11.372;2022-09-09T12:07:00;47.10;27.90
18085;DHT22;9169;44.492;11.372;2022-09-09T12:09:29;47.50;27.90
18085;DHT22;9169;44.492;11.372;2022-09-09T12:12:04;47.80;28.30
18085;DHT22;9169;44.492;11.372;2022-09-09T12:14:35;48.20;27.80
18085;DHT22;9169;44.492;11.372;2022-09-09T12:19:47;48.50;27.40
18085;DHT22;9169;44.492;11.372;2022-09-09T12:22:16;48.80;27.10
18085;DHT22;9169;44.492;11.372;2022-09-09T12:24:47;48.80;26.10
18085;DHT22;9169;44.492;11.372;2022-09-09T12:27:17;48.90;26.50
18085;DHT22;9169;44.492;11.372;2022-09-09T12:29:47;49.10;26.40
18085;DHT22;9169;44.492;11.372;2022-09-09T12:32:19;49.50;27.20
18085;DHT22;9169;44.492;11.372;2022-09-09T12:34:49;49.70;26.50
18085;DHT22;9169;44.492;11.372;2022-09-09T12:37:21;48.90;26.40
18085;DHT22;9169;44.492;11.372;2022-09-09T12:39:51;47.90;26.50
18085;DHT22;9169;44.492;11.372;2022-09-09T12:42:20;47.20;27.00
18085;DHT22;9169;44.492;11.372;2022-09-09T12:44:51;47.30;26.30
18085;DHT22;9169;44.492;11.372;2022-09-09T12:47:18;46.90;26.60
18085;DHT22;9169;44.492;11.372;2022-09-09T12:49:45;46.10;26.20
18085;DHT22;9169;44.492;11.372;2022-09-09T12:52:18;45.10;27.50
18085;DHT22;9169;44.492;11.372;2022-09-09T12:54:46;44.70;28.00
18085;DHT22;9169;44.492;11.372;2022-09-09T12:57:13;45.20;28.60
18085;DHT22;9169;44.492;11.372;2022-09-09T12:59:41;46.20;28.60
18085;DHT22;9169;44.492;11.372;2022-09-09T13:02:11;46.40;27.40
18085;DHT22;9169;44.492;11.372;2022-09-09T13:04:42;45.70;27.90
18085;DHT22;9169;44.492;11.372;2022-09-09T13:07:10;44.90;28.10
18085;DHT22;9169;44.492;11.372;2022-09-09T13:09:39;43.90;28.40
18085;DHT22;9169;44.492;11.372;2022-09-09T13:12:06;43.30;29.00
18085;DHT22;9169;44.492;11.372;2022-09-09T13:14:36;43.10;29.10
18085;DHT22;9169;44.492;11.372;2022-09-09T13:17:04;43.60;29.80
18085;DHT22;9169;44.492;11.372;2022-09-09T13:19:32;43.90;29.40
18085;DHT22;9169;44.492;11.372;2022-09-09T13:22:00;43.60;29.10
18085;DHT22;9169;44.492;11.372;2022-09-09T13:24:39;43.10;29.30
18085;DHT22;9169;44.492;11.372;2022-09-09T13:27:20;42.50;29.60
18085;DHT22;9169;44.492;11.372;2022-09-09T13:29:51;42.70;30.30
18085;DHT22;9169;44.492;11.372;2022-09-09T13:32:20;43.80;30.00
18085;DHT22;9169;44.492;11.372;2022-09-09T13:34:50;44.80;30.00
18085;DHT22;9169;44.492;11.372;2022-09-09T13:37:19;45.90;29.90
18085;DHT22;9169;44.492;11.372;2022-09-09T13:39:52;46.90;29.60
18085;DHT22;9169;44.492;11.372;2022-09-09T13:42:21;46.90;28.50
18085;DHT22;9169;44.492;11.372;2022-09-09T13:44:50;46.30;28.30
18085;DHT22;9169;44.492;11.372;2022-09-09T13:47:18;45.40;28.10
18085;DHT22;9169;44.492;11.372;2022-09-09T13:49:45;44.50;28.70
18085;DHT22;9169;44.492;11.372;2022-09-09T13:52:13;44.20;29.40
18085;DHT22;9169;44.492;11.372;2022-09-09T13:54:41;44.60;29.20
18085;DHT22;9169;44.492;11.372;2022-09-09T13:57:15;44.60;28.30
18085;DHT22;9169;44.492;11.372;2022-09-09T13:59:42;44.00;28.80
18085;DHT22;9169;44.492;11.372;2022-09-09T14:02:09;43.40;29.10
18085;DHT22;9169;44.492;11.372;2022-09-09T14:04:36;42.70;29.50
18085;DHT22;9169;44.492;11.372;2022-09-09T14:07:02;42.00;29.30
18085;DHT22;9169;44.492;11.372;2022-09-09T14:09:29;41.20;29.70
18085;DHT22;9169;44.492;11.372;2022-09-09T14:11:56;40.60;29.80
18085;DHT22;9169;44.492;11.372;2022-09-09T14:14:25;39.90;29.50
18085;DHT22;9169;44.492;11.372;2022-09-09T14:16:51;39.40;30.20
18085;DHT22;9169;44.492;11.372;2022-09-09T14:19:18;38.90;30.60
18085;DHT22;9169;44.492;11.372;2022-09-09T14:21:45;38.60;31.00
18085;DHT22;9169;44.492;11.372;2022-09-09T14:24:11;38.20;31.30
18085;DHT22;9169;44.492;11.372;2022-09-09T14:26:39;37.90;31.60
18085;DHT22;9169;44.492;11.372;2022-09-09T14:29:06;37.70;31.70
18085;DHT22;9169;44.492;11.372;2022-09-09T14:31:35;37.50;32.00
18085;DHT22;9169;44.492;11.372;2022-09-09T14:34:01;37.20;31.90
18085;DHT22;9169;44.492;11.372;2022-09-09T14:36:28;37.00;32.10
18085;DHT22;9169;44.492;11.372;2022-09-09T14:38:55;36.90;32.30
18085;DHT22;9169;44.492;11.372;2022-09-09T14:41:22;36.70;32.30
18085;DHT22;9169;44.492;11.372;2022-09-09T14:43:50;36.50;32.60
18085;DHT22;9169;44.492;11.372;2022-09-09T14:46:18;36.40;32.50
18085;DHT22;9169;44.492;11.372;2022-09-09T14:48:46;36.20;32.70
18085;DHT22;9169;44.492;11.372;2022-09-09T14:51:15;35.90;32.90
18085;DHT22;9169;44.492;11.372;2022-09-09T14:53:43;35.70;33.20
18085;DHT22;9169;44.492;11.372;2022-09-09T14:56:11;35.50;33.40
18085;DHT22;9169;44.492;11.372;2022-09-09T14:58:38;35.30;33.60
18085;DHT22;9169;44.492;11.372;2022-09-09T15:01:05;35.10;33.80
18085;DHT22;9169;44.492;11.372;2022-09-09T15:03:33;34.90;33.90
18085;DHT22;9169;44.492;11.372;2022-09-09T15:06:05;34.80;34.00
18085;DHT22;9169;44.492;11.372;2022-09-09T15:08:34;34.70;34.10
18085;DHT22;9169;44.492;11.372;2022-09-09T15:11:00;34.70;34.30
18085;DHT22;9169;44.492;11.372;2022-09-09T15:13:27;34.60;34.60
18085;DHT22;9169;44.492;11.372;2022-09-09T15:15:54;34.50;35.00
18085;DHT22;9169;44.492;11.372;2022-09-09T15:18:21;34.30;35.50
18085;DHT22;9169;44.492;11.372;2022-09-09T15:20:48;34.00;35.80
18085;DHT22;9169;44.492;11.372;2022-09-09T15:23:16;33.60;36.80
18085;DHT22;9169;44.492;11.372;2022-09-09T15:25:52;33.20;37.30
18085;DHT22;9169;44.492;11.372;2022-09-09T15:28:19;32.90;38.20
18085;DHT22;9169;44.492;11.372;2022-09-09T15:30:47;32.60;37.40
18085;DHT22;9169;44.492;11.372;2022-09-09T15:33:13;32.40;38.00
18085;DHT22;9169;44.492;11.372;2022-09-09T15:35:40;32.20;38.50
18085;DHT22;9169;44.492;11.372;2022-09-09T15:38:07;32.00;37.90
18085;DHT22;9169;44.492;11.372;2022-09-09T15:40:35;31.90;37.90
18085;DHT22;9169;44.492;11.372;2022-09-09T15:43:01;32.00;38.10
18085;DHT22;9169;44.492;11.372;2022-09-09T15:45:30;31.80;38.60
18085;DHT22;9169;44.492;11.372;2022-09-09T15:47:58;31.70;38.70